LFOB/BVA METAR and TAF weather

Enter ICAO airport designator
Station Type Date Time Source
LFOB METAR 2022/06/30 13:30 UTC NOAA

LFOB 301330Z AUTO 21006KT 160V240 9999 FEW016 SCT038 BKN120 15/12 Q1014 TEMPO 3000 SHRA BKN020CB


Station Type Date Time Source
LFOB Decoded METAR 2022/06/30 13:30 UTC NOAA

Beauvais, France (LFOB) 49-28N 002-07E 111M
Jun 30, 2022 - 09:30 AM EDT / 2022.06.30 1330 UTC
Wind: from the SSW (210 degrees) at 7 MPH (6 KT) (direction variable):0
Visibility: greater than 7 mile(s):0
Sky conditions: mostly cloudy
Weather: Cumulonimbus clouds observed
Temperature: 59 F (15 C)
Dew Point: 53 F (12 C)
Relative Humidity: 82%
Pressure (altimeter): 29.94 in. Hg (1014 hPa)
ob: LFOB 301330Z AUTO 21006KT 160V240 9999 FEW016 SCT038 BKN120 15/12 Q1014 TEMPO 3000 SHRA BKN020CB
cycle: 13

Station Type Date Time Source
LFOB TAF 2022/06/30 12:42 UTC NOAA

TAF TAF LFOB 301100Z 3012/0112 27008KT 9999 BKN020
TEMPO 3012/3014 3000 RA BKN006 BKN013 BKN020
TEMPO 3014/3020 3000 SHRA BKN020CB PROB40
TEMPO 0100/0106 2000 BR PROB30 0103/0106 0800 FG

Example: see airport list